createdAt,value
2022-08-18T00:00:46.275Z,41330.41
2022-08-18T00:02:02.850Z,40672.63
2022-08-18T00:03:19.128Z,38667.03
2022-08-18T00:04:43.424Z,37325.97
2022-08-18T00:05:51.390Z,43999.97
2022-08-18T00:06:53.585Z,47023.56
2022-08-18T00:07:55.786Z,48690.72
2022-08-18T00:08:59.852Z,51058.19
2022-08-18T00:10:02.326Z,56059.16
2022-08-18T00:11:05.730Z,54742.41
2022-08-18T00:12:13.551Z,48022.69
2022-08-18T00:13:15.828Z,37965.88
2022-08-18T00:14:22.756Z,35655.66
2022-08-18T00:15:25.734Z,35973.19
2022-08-18T00:16:28.014Z,37648.03
2022-08-18T00:17:31.098Z,40330.03
2022-08-18T00:18:33.288Z,41311.66
2022-08-18T00:19:46.460Z,38643.06
2022-08-18T00:20:50.132Z,43322.44
2022-08-18T00:21:52.453Z,34628.13
2022-08-18T00:22:56.589Z,34979.31
2022-08-18T00:23:58.803Z,42991.75
2022-08-18T00:25:01.433Z,46688.00
2022-08-18T00:26:04.626Z,52387.25
2022-08-18T00:27:06.894Z,57080.09
2022-08-18T00:28:09.765Z,59770.78
2022-08-18T00:29:11.999Z,62466.81
2022-08-18T00:30:19.064Z,63829.38
2022-08-18T00:31:21.311Z,64481.00
2022-08-18T00:32:29.684Z,66187.38
2022-08-18T00:33:32.361Z,70876.06
2022-08-18T00:34:34.611Z,70544.97
2022-08-18T00:35:38.617Z,64496.19
2022-08-18T00:36:41.178Z,58404.56
2022-08-18T00:37:43.436Z,56060.03
2022-08-18T00:38:45.688Z,60768.38
2022-08-18T00:39:51.605Z,57093.94
2022-08-18T00:40:55.915Z,55068.19
2022-08-18T00:41:58.147Z,55727.41
2022-08-18T00:43:04.782Z,53067.25
2022-08-18T00:44:07.023Z,52045.00
2022-08-18T00:45:14.511Z,50382.44
2022-08-18T00:46:24.845Z,52071.72
2022-08-18T00:47:41.014Z,51710.09
2022-08-18T00:48:48.534Z,58772.66
2022-08-18T00:49:54.975Z,61487.53
2022-08-18T00:51:00.981Z,64842.06
2022-08-18T00:52:05.136Z,60798.41
2022-08-18T00:53:15.312Z,55757.44
2022-08-18T00:54:30.731Z,60473.88
2022-08-18T00:55:34.027Z,59781.09
2022-08-18T00:56:46.935Z,56105.13
2022-08-18T00:57:55.121Z,56427.00
2022-08-18T00:59:22.456Z,61494.75
2022-08-18T01:00:24.733Z,64478.47
2022-08-18T01:01:30.783Z,64190.72
2022-08-18T01:02:37.443Z,66871.75
2022-08-18T01:03:43.732Z,69925.09
2022-08-18T01:04:56.251Z,70600.00
2022-08-18T01:06:11.868Z,76681.63
2022-08-18T01:07:21.601Z,70590.53
2022-08-18T01:08:28.938Z,65480.69
2022-08-18T01:09:31.887Z,70559.97
2022-08-18T01:10:35.020Z,78329.81
2022-08-18T01:11:39.353Z,80053.00
2022-08-18T01:12:46.423Z,78982.34
2022-08-18T01:13:49.240Z,81350.16
2022-08-18T01:14:51.750Z,78305.06
2022-08-18T01:15:54.026Z,78644.91
2022-08-18T01:17:16.205Z,81038.19
2022-08-18T01:18:37.503Z,87798.47
2022-08-18T01:19:58.680Z,87110.19
2022-08-18T01:21:54.434Z,89548.63
2022-08-18T01:23:00.334Z,88834.66
2022-08-18T01:24:05.527Z,81018.97
2022-08-18T01:25:27.670Z,82720.63
2022-08-18T01:26:31.365Z,89854.47
2022-08-18T01:27:34.331Z,87424.78
2022-08-18T01:28:42.631Z,80039.69
2022-08-18T01:29:49.703Z,76650.09
2022-08-18T01:30:58.085Z,78667.31
2022-08-18T01:32:00.289Z,77293.13
2022-08-18T01:33:02.456Z,78983.59
2022-08-18T01:34:09.397Z,79016.06
2022-08-18T01:35:15.036Z,77324.88
2022-08-18T01:36:20.975Z,68220.66
2022-08-18T01:37:24.628Z,77321.19
2022-08-18T01:38:27.458Z,77643.91
2022-08-18T01:41:06.262Z,87811.00
2022-08-18T01:41:27.331Z,80002.31
2022-08-18T01:42:17.710Z,94261.28
2022-08-18T01:43:20.765Z,87456.00
2022-08-18T01:44:22.942Z,76628.91
2022-08-18T01:45:25.266Z,83404.31
2022-08-18T01:46:29.497Z,85803.91
2022-08-18T01:47:47.788Z,89205.72
2022-08-18T01:48:52.355Z,98007.84
2022-08-18T01:49:54.559Z,94573.88
2022-08-18T01:50:56.941Z,92555.84
2022-08-18T01:51:59.179Z,95249.44
2022-08-18T01:53:05.822Z,83072.97
2022-08-18T01:54:11.858Z,86486.69
2022-08-18T01:55:14.599Z,94245.50
2022-08-18T01:56:17.760Z,87461.59
2022-08-18T01:57:21.466Z,94613.78
2022-08-18T01:58:31.579Z,104443.38
2022-08-18T01:59:35.283Z,91488.00
2022-08-18T02:00:38.021Z,82699.66
2022-08-18T02:01:50.522Z,87126.78
2022-08-18T02:03:02.562Z,86780.97
2022-08-18T02:04:31.598Z,84070.25
2022-08-18T02:05:36.436Z,87790.78
2022-08-18T02:06:40.651Z,78641.19
2022-08-18T02:07:48.639Z,82697.06
2022-08-18T02:08:56.347Z,85745.38
2022-08-18T02:09:59.514Z,87786.63
2022-08-18T02:11:03.333Z,89810.22
2022-08-18T02:12:07.165Z,91210.44
2022-08-18T02:13:09.639Z,94899.91
2022-08-18T02:14:11.842Z,80995.84
2022-08-18T02:15:14.088Z,84394.16
2022-08-18T02:16:16.855Z,80974.69
2022-08-18T02:17:19.337Z,71879.38
2022-08-18T02:18:46.985Z,71578.78
2022-08-18T02:19:47.882Z,90824.09
2022-08-18T02:20:50.653Z,90825.53
2022-08-18T02:21:52.974Z,89115.09
2022-08-18T02:22:55.309Z,92159.91
2022-08-18T02:23:57.497Z,93854.34
2022-08-18T02:25:00.018Z,94193.78
2022-08-18T02:26:11.179Z,94252.25
2022-08-18T02:27:15.450Z,96258.66
2022-08-18T02:28:17.656Z,99952.56
2022-08-18T02:29:19.881Z,99948.56
2022-08-18T02:30:22.197Z,94852.34
2022-08-18T02:31:25.627Z,92167.97
2022-08-18T02:32:29.382Z,91460.38
2022-08-18T02:33:31.892Z,87049.31
2022-08-18T02:34:34.863Z,84694.47
2022-08-18T02:35:38.203Z,82324.09
2022-08-18T02:36:40.349Z,72179.66
2022-08-18T02:37:47.957Z,73216.06
2022-08-18T02:38:59.187Z,75895.63
2022-08-18T02:40:02.377Z,79604.28
2022-08-18T02:41:08.122Z,79638.97
2022-08-18T02:42:10.654Z,80957.34
2022-08-18T02:43:12.813Z,82647.22
2022-08-18T02:44:15.005Z,83665.25
2022-08-18T02:45:17.265Z,88390.81
2022-08-18T02:46:19.487Z,84667.59
2022-08-18T02:47:21.911Z,83659.97
2022-08-18T02:48:31.233Z,85012.00
2022-08-18T02:49:33.476Z,81627.00
2022-08-18T02:50:44.864Z,79268.31
2022-08-18T02:51:47.070Z,68111.22
2022-08-18T02:52:49.619Z,63091.22
2022-08-18T02:53:51.843Z,67124.78
2022-08-18T02:54:56.004Z,65431.81
2022-08-18T02:56:40.390Z,58080.53
2022-08-18T02:57:45.998Z,59735.69
2022-08-18T02:58:49.398Z,54702.69
2022-08-18T02:59:51.667Z,57352.25
2022-08-18T03:00:54.110Z,52676.34
2022-08-18T03:01:56.483Z,51648.16
2022-08-18T03:02:58.814Z,46655.84
2022-08-18T03:04:01.374Z,55022.69
2022-08-18T03:05:03.842Z,51003.06
2022-08-18T03:06:06.380Z,51334.06
2022-08-18T03:07:09.216Z,51674.28
2022-08-18T03:08:11.569Z,57041.75
2022-08-18T03:09:16.946Z,54036.53
2022-08-18T03:10:33.368Z,56367.97
2022-08-18T03:11:37.605Z,54028.09
2022-08-18T03:12:42.812Z,56060.03
2022-08-18T03:13:45.630Z,55024.00
2022-08-18T03:14:47.853Z,46971.13
2022-08-18T03:15:54.687Z,45298.88
2022-08-18T03:16:59.836Z,37629.63
2022-08-18T03:18:02.406Z,34287.25
2022-08-18T03:19:04.617Z,35955.34
2022-08-18T03:20:07.394Z,39950.75
2022-08-18T03:21:21.646Z,34972.38
2022-08-18T03:22:28.266Z,38621.47
2022-08-18T03:23:31.921Z,41969.88
2022-08-18T03:24:36.241Z,45324.09
2022-08-18T03:25:49.306Z,48012.66
2022-08-18T03:26:53.315Z,49350.00
2022-08-18T03:27:55.516Z,53361.66
2022-08-18T03:28:59.993Z,54363.03
2022-08-18T03:30:04.482Z,53026.78
2022-08-18T03:31:14.711Z,57393.09
2022-08-18T03:32:17.280Z,61410.94
2022-08-18T03:33:20.377Z,58728.97
2022-08-18T03:34:22.589Z,59735.22
2022-08-18T03:35:25.057Z,62758.44
2022-08-18T03:36:31.928Z,62446.72
2022-08-18T03:37:34.121Z,62090.94
2022-08-18T03:38:36.362Z,64448.59
2022-08-18T03:39:38.806Z,59726.78
2022-08-18T03:40:43.238Z,59047.25
2022-08-18T03:41:58.598Z,50671.66
2022-08-18T03:43:50.221Z,51362.03
2022-08-18T03:44:32.487Z,58751.94
2022-08-18T03:45:35.428Z,57716.69
2022-08-18T03:46:37.946Z,55706.13
2022-08-18T03:47:40.394Z,61077.75
2022-08-18T03:48:43.915Z,55716.56
2022-08-18T03:49:46.079Z,56709.25
2022-08-18T03:50:48.504Z,62428.63
2022-08-18T03:51:51.747Z,60705.06
2022-08-18T03:52:54.269Z,57384.13
2022-08-18T03:54:00.323Z,60101.28
2022-08-18T03:55:02.886Z,64772.31
2022-08-18T03:56:16.022Z,56051.28
2022-08-18T03:57:20.022Z,54363.03
2022-08-18T03:58:22.153Z,62754.00
2022-08-18T03:59:27.341Z,63456.84
2022-08-18T04:00:31.122Z,63095.19
2022-08-18T04:01:39.271Z,57052.91
2022-08-18T04:02:41.685Z,53340.03
2022-08-18T04:03:45.810Z,51020.50
2022-08-18T04:04:48.325Z,60062.22
2022-08-18T04:05:53.495Z,64451.63
2022-08-18T04:07:00.586Z,73249.03
2022-08-18T04:08:04.870Z,89773.84
2022-08-18T04:09:10.163Z,82015.78
2022-08-18T04:10:19.149Z,88082.22
2022-08-18T04:11:22.827Z,79632.03
2022-08-18T04:12:25.097Z,75222.41
2022-08-18T04:13:27.353Z,79952.94
2022-08-18T04:15:42.052Z,85702.53
2022-08-18T04:16:45.409Z,85722.25
2022-08-18T04:17:56.203Z,87051.41
2022-08-18T04:19:09.954Z,86067.72
2022-08-18T04:20:13.334Z,81650.31
2022-08-18T04:21:15.535Z,76901.69
2022-08-18T04:22:18.531Z,76561.09
2022-08-18T04:23:21.351Z,67457.19
2022-08-18T04:24:24.465Z,71186.34
2022-08-18T04:25:32.562Z,67102.09
2022-08-18T04:26:37.944Z,52032.44
2022-08-18T04:27:42.706Z,54017.56
2022-08-18T04:28:44.875Z,53021.00
2022-08-18T04:29:48.353Z,55710.91
2022-08-18T04:30:50.824Z,59067.13
2022-08-18T04:31:53.074Z,64108.63
2022-08-18T04:32:55.243Z,66810.78
2022-08-18T04:33:58.904Z,65129.72
2022-08-18T04:35:02.993Z,64433.41
2022-08-18T04:36:11.520Z,60105.03
2022-08-18T04:37:15.434Z,61075.38
2022-08-18T04:38:17.739Z,67801.84
2022-08-18T04:39:21.228Z,63094.69
2022-08-18T04:40:25.350Z,64100.06
2022-08-18T04:41:29.405Z,64084.47
2022-08-18T04:42:31.621Z,54338.44
2022-08-18T04:43:34.078Z,52679.63
2022-08-18T04:44:37.944Z,60064.13
2022-08-18T04:45:40.144Z,66444.81
2022-08-18T04:46:48.260Z,53696.56
2022-08-18T04:47:51.279Z,48645.78
2022-08-18T04:48:59.104Z,42630.16
2022-08-18T04:50:02.058Z,43281.00
2022-08-18T04:51:07.867Z,42986.47
2022-08-18T04:52:40.737Z,48324.28
2022-08-18T04:53:45.121Z,57731.13
2022-08-18T04:54:47.300Z,62752.53
2022-08-18T04:55:54.318Z,64450.09
2022-08-18T04:56:56.582Z,56353.88
2022-08-18T04:57:59.511Z,60396.72
2022-08-18T04:59:13.349Z,60084.81
2022-08-18T05:00:15.740Z,62399.25
2022-08-18T05:01:21.864Z,60077.75
2022-08-18T05:02:24.269Z,63760.25
2022-08-18T05:03:27.135Z,65448.28
2022-08-18T05:04:30.291Z,64763.16
2022-08-18T05:05:32.537Z,58378.53
2022-08-18T05:06:35.393Z,63748.75
2022-08-18T05:07:44.866Z,55051.88
2022-08-18T05:08:48.425Z,63413.03
2022-08-18T05:09:54.073Z,59053.72
2022-08-18T05:11:03.154Z,62760.91
2022-08-18T05:12:07.094Z,64451.09
2022-08-18T05:13:09.796Z,63407.56
2022-08-18T05:14:12.136Z,57361.69
2022-08-18T05:15:14.363Z,55679.13
2022-08-18T05:16:27.708Z,51340.47
2022-08-18T05:17:31.068Z,52004.09
2022-08-18T05:18:39.216Z,56739.41
2022-08-18T05:19:48.487Z,65121.53
2022-08-18T05:20:53.261Z,70187.84
2022-08-18T05:22:00.040Z,54701.41
2022-08-18T05:23:03.097Z,56715.47
2022-08-18T05:24:05.752Z,59072.69
2022-08-18T05:25:10.680Z,59430.47
2022-08-18T05:26:14.587Z,60763.63
2022-08-18T05:27:16.838Z,64779.94
2022-08-18T05:28:19.377Z,65465.75
2022-08-18T05:29:22.867Z,71550.03
2022-08-18T05:30:26.294Z,78275.97
2022-08-18T05:31:29.457Z,76614.38
2022-08-18T05:32:49.006Z,78328.59
2022-08-18T05:33:53.057Z,79645.88
2022-08-18T05:34:56.175Z,78612.56
2022-08-18T05:36:04.118Z,73263.47
2022-08-18T05:37:26.434Z,65505.91
2022-08-18T05:38:39.662Z,64830.38
2022-08-18T05:39:59.076Z,67520.94
2022-08-18T05:41:19.514Z,77332.22
2022-08-18T05:42:26.884Z,82055.41
2022-08-18T05:43:29.565Z,88132.56
2022-08-18T05:44:40.494Z,90880.44
2022-08-18T05:45:44.131Z,90149.34
2022-08-18T05:46:52.455Z,67850.97
2022-08-18T05:48:00.092Z,63140.75
2022-08-18T05:49:02.497Z,65810.09
2022-08-18T05:50:09.189Z,58085.53
2022-08-18T05:51:22.360Z,53400.75
2022-08-18T05:52:27.477Z,51384.00
2022-08-18T05:53:48.724Z,46995.53
2022-08-18T05:55:15.524Z,51049.06
2022-08-18T05:56:46.096Z,45021.94
2022-08-18T05:57:54.550Z,52397.06
2022-08-18T05:58:59.596Z,42662.38
2022-08-18T06:00:04.775Z,44671.75
2022-08-18T06:01:23.173Z,40993.03
2022-08-18T06:02:55.137Z,30997.81
2022-08-18T06:04:22.375Z,34994.75
2022-08-18T06:05:34.922Z,27323.75
2022-08-18T06:06:37.607Z,32982.22
2022-08-18T06:07:49.179Z,36671.72
2022-08-18T06:09:12.872Z,31327.16
2022-08-18T06:10:15.776Z,34993.94
2022-08-18T06:11:22.324Z,41332.31
2022-08-18T06:12:37.289Z,38351.50
2022-08-18T06:13:43.129Z,51386.38
2022-08-18T06:14:45.465Z,40317.94
2022-08-18T06:16:18.973Z,40352.31
2022-08-18T06:17:39.704Z,46694.84
2022-08-18T06:19:02.855Z,50399.69
2022-08-18T06:20:28.716Z,43029.22
2022-08-18T06:21:36.908Z,44341.66
2022-08-18T06:23:02.119Z,48413.53
2022-08-18T06:24:22.820Z,63190.31
2022-08-18T06:25:34.824Z,55114.63
2022-08-18T06:26:49.305Z,61824.03
2022-08-18T06:28:08.447Z,57791.63
2022-08-18T06:29:25.442Z,63175.41
2022-08-18T06:30:42.930Z,52105.75
2022-08-18T06:31:47.900Z,64568.09
2022-08-18T06:33:16.432Z,82774.41
2022-08-18T06:34:33.578Z,87546.28
2022-08-18T06:35:50.256Z,95314.66
2022-08-18T06:37:25.550Z,95040.50
2022-08-18T06:38:46.168Z,90252.53
2022-08-18T06:39:51.329Z,83497.53
2022-08-18T06:41:40.517Z,98455.31
2022-08-18T06:42:38.700Z,82401.06
2022-08-18T06:43:58.973Z,75684.78
2022-08-18T06:45:07.112Z,52759.66
2022-08-18T06:46:17.634Z,63866.94
2022-08-18T06:47:40.912Z,62875.72
2022-08-18T06:48:52.139Z,65561.50
2022-08-18T06:50:03.076Z,73661.50
2022-08-18T06:51:07.920Z,80080.88
2022-08-18T06:52:33.586Z,95035.97
2022-08-18T06:53:55.291Z,100833.34
2022-08-18T06:55:09.785Z,91950.69
2022-08-18T06:56:26.891Z,83514.75
2022-08-18T06:57:31.112Z,98068.72
2022-08-18T06:58:33.285Z,84424.94
2022-08-18T06:59:36.642Z,60800.28
2022-08-18T07:00:43.676Z,56459.59
2022-08-18T07:01:55.810Z,70628.94
2022-08-18T07:03:12.987Z,83153.97
2022-08-18T07:04:39.857Z,91974.06
2022-08-18T07:06:02.391Z,88520.09
2022-08-18T07:07:20.500Z,59829.28
2022-08-18T07:08:35.659Z,50443.16
2022-08-18T07:09:38.059Z,67547.47
2022-08-18T07:10:48.032Z,64886.38
2022-08-18T07:12:05.454Z,58832.41
2022-08-18T07:13:18.083Z,55453.63
2022-08-18T07:14:22.826Z,62199.59
2022-08-18T07:15:25.142Z,68238.91
2022-08-18T07:16:54.603Z,67909.16
2022-08-18T07:17:49.976Z,78412.84
2022-08-18T07:18:52.586Z,91950.69
2022-08-18T07:19:58.151Z,83505.47
2022-08-18T07:21:01.485Z,95028.41
2022-08-18T07:22:19.088Z,99478.59
2022-08-18T07:23:33.810Z,106938.81
2022-08-18T07:24:46.717Z,105257.38
2022-08-18T07:25:53.030Z,87548.38
2022-08-18T07:27:00.975Z,73670.78
2022-08-18T07:28:03.423Z,69260.66
2022-08-18T07:29:16.046Z,84886.72
2022-08-18T07:30:19.525Z,91930.22
2022-08-18T07:31:42.797Z,83520.69
2022-08-18T07:33:10.595Z,97085.81
2022-08-18T07:34:19.123Z,98462.38
2022-08-18T07:35:32.354Z,108044.59
2022-08-18T07:36:47.477Z,107355.44
2022-08-18T07:38:13.804Z,121725.53
2022-08-18T07:39:31.889Z,130302.53
2022-08-18T07:41:04.075Z,140954.59
2022-08-18T07:42:54.023Z,146972.88
2022-08-18T07:44:35.886Z,151690.97
2022-08-18T07:45:43.007Z,151636.00
2022-08-18T07:47:12.156Z,151666.56
2022-08-18T07:48:38.032Z,151702.00
2022-08-18T07:50:13.457Z,151606.66
2022-08-18T07:51:15.232Z,151643.31
2022-08-18T07:52:43.783Z,151591.97
2022-08-18T07:54:37.673Z,151794.94
2022-08-18T07:55:44.587Z,151845.13
2022-08-18T07:56:51.489Z,151769.31
2022-08-18T07:58:18.138Z,151900.22
2022-08-18T07:59:48.984Z,151947.91
2022-08-18T08:01:04.721Z,151858.56
2022-08-18T08:02:16.017Z,152001.75
2022-08-18T08:03:24.099Z,151857.31
2022-08-18T08:04:58.622Z,151900.22
2022-08-18T08:06:19.991Z,152073.97
2022-08-18T08:07:31.897Z,151988.25
2022-08-18T08:08:42.327Z,152054.38
2022-08-18T08:09:53.901Z,152086.19
2022-08-18T08:11:22.960Z,152149.81
2022-08-18T08:13:06.099Z,152247.78
2022-08-18T08:14:50.346Z,152193.94
2022-08-18T08:16:04.171Z,152122.88
2022-08-18T08:17:25.259Z,152220.84
2022-08-18T08:18:51.445Z,152328.63
2022-08-18T08:20:00.906Z,152176.78
2022-08-18T08:21:19.975Z,152289.38
2022-08-18T08:22:31.465Z,152323.69
2022-08-18T08:23:52.475Z,152313.91
2022-08-18T08:25:28.304Z,152291.81
2022-08-18T08:26:57.449Z,152307.81
2022-08-18T08:28:03.145Z,152118.00
2022-08-18T08:29:10.965Z,152071.53
2022-08-18T08:30:17.884Z,151988.25
2022-08-18T08:31:37.847Z,152015.19
2022-08-18T08:33:07.128Z,152191.47
2022-08-18T08:34:22.277Z,152295.53
2022-08-18T08:36:02.996Z,152273.50
2022-08-18T08:37:09.329Z,152504.97
2022-08-18T08:38:49.519Z,152529.47
2022-08-18T08:40:00.890Z,152312.69
2022-08-18T08:41:08.379Z,152455.97
2022-08-18T08:42:30.263Z,152504.97
2022-08-18T08:43:40.408Z,152504.97
2022-08-18T08:44:59.131Z,152235.56
2022-08-18T08:46:24.712Z,152201.28
2022-08-18T08:48:09.276Z,152162.13
2022-08-18T08:49:39.697Z,151990.69
2022-08-18T08:50:47.143Z,152051.94
2022-08-18T08:51:58.020Z,152213.50
2022-08-18T08:53:08.573Z,152345.75
2022-08-18T08:54:17.777Z,152531.94
2022-08-18T08:55:27.160Z,152772.09
2022-08-18T08:56:39.314Z,153148.50
2022-08-18T08:57:50.375Z,153425.78
2022-08-18T08:58:58.807Z,153492.06
2022-08-18T09:00:05.133Z,153596.41
2022-08-18T09:01:24.366Z,153930.38
2022-08-18T09:03:12.623Z,153977.00
2022-08-18T09:04:54.741Z,153835.78
2022-08-18T09:06:57.307Z,153311.63
2022-08-18T09:08:25.711Z,153062.66
2022-08-18T09:09:55.705Z,152991.56
2022-08-18T09:11:06.772Z,152818.63
2022-08-18T09:12:17.320Z,152753.69
2022-08-18T09:13:57.203Z,152904.47
2022-08-18T09:15:17.310Z,152951.03
2022-08-18T09:16:37.310Z,152975.59
2022-08-18T09:18:04.065Z,153132.56
2022-08-18T09:19:34.230Z,153054.09
2022-08-18T09:20:51.495Z,153311.63
2022-08-18T09:22:03.530Z,153562.00
2022-08-18T09:23:18.242Z,153878.78
2022-08-18T09:24:38.944Z,154102.31
2022-08-18T09:25:44.042Z,154291.56
2022-08-18T09:27:04.253Z,154316.16
2022-08-18T09:28:13.606Z,154231.31
2022-08-18T09:29:23.603Z,154160.09
2022-08-18T09:31:03.909Z,154290.34
2022-08-18T09:32:23.919Z,154102.31
2022-08-18T09:33:40.436Z,153530.09
2022-08-18T09:34:51.636Z,153147.28
2022-08-18T09:36:08.904Z,152958.44
2022-08-18T09:37:24.509Z,152823.59
2022-08-18T09:38:49.807Z,152603.00
2022-08-18T09:40:58.993Z,152417.97
2022-08-18T09:41:59.701Z,152208.63
2022-08-18T09:43:14.151Z,152296.75
2022-08-18T09:44:40.977Z,152042.16
2022-08-18T09:46:04.349Z,152038.47
2022-08-18T09:47:08.448Z,152043.38
2022-08-18T09:48:20.705Z,152130.25
2022-08-18T09:49:27.820Z,152002.97
2022-08-18T09:50:38.548Z,152053.16
2022-08-18T09:51:41.174Z,152044.59
2022-08-18T09:52:43.459Z,152105.78
2022-08-18T09:53:46.696Z,152084.97
2022-08-18T09:55:26.877Z,152250.22
2022-08-18T09:57:04.203Z,152195.16
2022-08-18T09:58:19.152Z,152267.38
2022-08-18T09:59:34.221Z,152419.19
2022-08-18T10:00:37.674Z,152218.41
2022-08-18T10:01:41.961Z,152286.94
2022-08-18T10:02:48.830Z,152421.63
2022-08-18T10:05:57.330Z,152685.06
2022-08-18T10:07:38.886Z,152681.38
2022-08-18T10:09:17.620Z,152698.56
2022-08-18T10:11:00.652Z,152607.91
2022-08-18T10:12:18.157Z,152452.31
2022-08-18T10:13:38.735Z,152551.50
2022-08-18T10:15:33.081Z,152573.59
2022-08-18T10:18:41.251Z,152280.81
2022-08-18T10:20:03.812Z,152169.47
2022-08-18T10:21:17.953Z,152253.88
2022-08-18T10:22:46.216Z,152305.38
2022-08-18T10:24:31.640Z,152377.59
2022-08-18T10:25:42.154Z,152415.53
2022-08-18T10:26:54.651Z,152218.41
2022-08-18T10:28:11.839Z,152380.03
2022-08-18T10:29:29.666Z,152355.53
2022-08-18T10:31:57.679Z,152176.78
2022-08-18T10:33:15.152Z,152291.81
2022-08-18T10:34:51.689Z,152202.50
2022-08-18T10:35:58.999Z,152197.63
2022-08-18T10:37:06.357Z,152196.41
2022-08-18T10:38:17.919Z,152357.97
2022-08-18T10:39:24.426Z,152255.09
2022-08-18T10:40:28.082Z,152225.72
2022-08-18T10:41:32.007Z,152350.66
2022-08-18T10:42:37.445Z,152340.88
2022-08-18T10:45:24.900Z,152211.06
2022-08-18T10:46:36.975Z,152427.81
2022-08-18T10:47:45.147Z,152186.56
2022-08-18T10:49:25.242Z,152417.97
2022-08-18T10:50:29.861Z,152384.91
2022-08-18T10:52:01.415Z,152514.75
2022-08-18T10:53:39.541Z,152654.44
2022-08-18T10:55:02.406Z,152590.78
2022-08-18T10:56:12.358Z,152522.09
2022-08-18T10:57:30.059Z,152783.13
2022-08-18T10:58:41.045Z,152878.75
2022-08-18T10:59:54.296Z,152799.06
2022-08-18T11:01:22.028Z,152810.06
2022-08-18T11:02:37.131Z,152791.72
2022-08-18T11:03:51.391Z,152821.13
2022-08-18T11:04:59.916Z,152883.63
2022-08-18T11:06:14.668Z,152899.59
2022-08-18T11:07:24.974Z,152938.81
2022-08-18T11:08:36.939Z,152886.09
2022-08-18T11:09:41.914Z,153060.22
2022-08-18T11:11:27.477Z,153208.59
2022-08-18T11:12:14.464Z,153028.34
2022-08-18T11:13:31.425Z,152725.56
2022-08-18T11:14:39.414Z,152495.19
2022-08-18T11:16:19.482Z,152844.44
2022-08-18T11:17:50.210Z,153033.22
2022-08-18T11:18:58.167Z,153136.25
2022-08-18T11:20:02.495Z,153105.59
2022-08-18T11:21:34.370Z,153169.34
2022-08-18T11:22:54.290Z,153056.53
2022-08-18T11:24:07.357Z,153051.59
2022-08-18T11:25:22.353Z,153208.59
2022-08-18T11:26:29.529Z,153296.94
2022-08-18T11:27:35.827Z,153585.38
2022-08-18T11:28:41.178Z,153511.66
2022-08-18T11:29:48.685Z,153474.88
2022-08-18T11:30:54.855Z,153463.84
2022-08-18T11:32:11.838Z,153520.28
2022-08-18T11:33:23.217Z,153392.66
2022-08-18T11:34:52.866Z,153240.50
2022-08-18T11:35:59.211Z,153321.47
2022-08-18T11:37:08.980Z,153247.84
2022-08-18T11:38:20.936Z,153066.34
2022-08-18T11:39:37.657Z,152884.84
2022-08-18T11:42:15.953Z,152790.50
2022-08-18T11:43:41.539Z,152921.66
2022-08-18T11:44:45.782Z,152851.78
2022-08-18T11:46:04.406Z,152860.38
2022-08-18T11:47:23.617Z,152875.06
2022-08-18T11:48:51.600Z,152924.13
2022-08-18T11:50:00.159Z,152837.09
2022-08-18T11:51:22.735Z,152958.44
2022-08-18T11:52:35.175Z,153001.34
2022-08-18T11:53:55.576Z,153081.03
2022-08-18T11:55:14.391Z,152970.72
2022-08-18T11:56:36.019Z,152845.66
2022-08-18T11:57:59.106Z,152857.94
2022-08-18T11:59:07.284Z,152967.03
2022-08-18T12:00:47.105Z,153071.22
2022-08-18T12:01:52.041Z,152913.06
2022-08-18T12:03:09.671Z,153117.84
2022-08-18T12:04:14.583Z,153168.13
2022-08-18T12:05:17.988Z,153131.34
2022-08-18T12:06:30.595Z,153181.59
2022-08-18T12:07:37.273Z,153262.59
2022-08-18T12:08:57.233Z,153456.44
2022-08-18T12:11:55.821Z,153768.25
2022-08-18T12:13:01.492Z,153827.22
2022-08-18T12:14:31.409Z,153980.72
2022-08-18T12:15:44.472Z,153493.28
2022-08-18T12:16:50.803Z,153644.22
2022-08-18T12:17:56.275Z,153826.00
2022-08-18T12:18:59.068Z,153634.44
2022-08-18T12:20:08.700Z,153616.03
2022-08-18T12:21:14.467Z,153574.25
2022-08-18T12:22:21.067Z,153525.19
2022-08-18T12:23:23.390Z,153736.31
2022-08-18T12:24:36.687Z,153647.94
2022-08-18T12:25:39.207Z,153763.34
2022-08-18T12:26:47.199Z,153639.31
2022-08-18T12:27:49.945Z,153546.03
2022-08-18T12:28:52.154Z,153495.75
2022-08-18T12:29:57.498Z,153598.84
2022-08-18T12:30:59.880Z,153541.13
2022-08-18T12:32:02.088Z,153563.22
2022-08-18T12:34:27.349Z,153444.16
2022-08-18T12:35:29.592Z,153274.84
2022-08-18T12:36:31.963Z,153301.84
2022-08-18T12:37:58.424Z,153137.47
2022-08-18T12:38:56.699Z,153244.19
2022-08-18T12:40:00.819Z,153473.66
2022-08-18T12:41:03.535Z,153446.59
2022-08-18T12:42:06.006Z,153314.09
2022-08-18T12:43:09.535Z,153363.22
2022-08-18T12:44:13.552Z,153309.19
2022-08-18T12:45:15.965Z,153283.47
2022-08-18T12:46:18.314Z,153454.00
2022-08-18T12:48:50.245Z,153606.19
2022-08-18T12:49:53.180Z,153663.88
2022-08-18T12:50:59.876Z,153806.28
2022-08-18T12:52:03.676Z,153760.88
2022-08-18T12:53:06.427Z,153543.56
2022-08-18T12:54:10.543Z,153461.38
2022-08-18T12:55:22.228Z,153238.06
2022-08-18T12:56:30.840Z,153250.34
2022-08-18T12:57:51.753Z,153016.06
2022-08-18T12:58:55.854Z,152870.19
2022-08-18T12:59:58.108Z,152921.66
2022-08-18T13:01:00.391Z,152975.59
2022-08-18T13:02:05.992Z,153039.34
2022-08-18T13:03:08.762Z,153110.50
2022-08-18T13:04:14.014Z,152862.84
2022-08-18T13:05:19.545Z,152845.66
2022-08-18T13:06:32.923Z,152964.53
2022-08-18T13:07:36.325Z,152876.28
2022-08-18T13:08:49.993Z,153009.94
2022-08-18T13:09:54.147Z,152788.06
2022-08-18T13:10:56.531Z,152862.84
2022-08-18T13:12:00.585Z,152882.41
2022-08-18T13:13:02.760Z,152835.81
2022-08-18T13:14:09.017Z,152897.16
2022-08-18T13:15:11.627Z,152911.81
2022-08-18T13:16:16.302Z,152975.59
2022-08-18T13:17:34.333Z,152821.13
2022-08-18T13:18:37.718Z,152853.00
2022-08-18T13:19:40.015Z,152828.47
2022-08-18T13:20:45.207Z,152853.00
2022-08-18T13:21:47.723Z,152823.59
2022-08-18T13:22:51.838Z,152830.91
2022-08-18T13:23:55.637Z,152803.97
2022-08-18T13:24:57.807Z,152796.63
2022-08-18T13:26:03.322Z,152910.59
2022-08-18T13:27:13.581Z,152834.59
2022-08-18T13:28:20.688Z,152875.06
2022-08-18T13:29:23.810Z,152849.31
2022-08-18T13:30:29.705Z,152909.38
2022-08-18T13:31:34.064Z,152878.75
2022-08-18T13:32:47.114Z,152941.25
2022-08-18T13:34:04.077Z,153046.69
2022-08-18T13:35:13.150Z,153030.78
2022-08-18T13:36:16.776Z,153051.59
2022-08-18T13:37:20.577Z,152986.69
2022-08-18T13:38:27.842Z,152935.13
2022-08-18T13:39:34.225Z,152970.72
2022-08-18T13:40:38.388Z,153081.03
2022-08-18T13:41:52.662Z,153098.25
2022-08-18T13:42:54.966Z,153035.69
2022-08-18T13:43:59.349Z,153085.97
2022-08-18T13:45:24.543Z,153014.81
2022-08-18T13:46:31.076Z,153152.22
2022-08-18T13:47:38.129Z,153105.59
2022-08-18T13:48:41.696Z,153089.63
2022-08-18T13:49:58.036Z,152982.97
2022-08-18T13:51:02.088Z,152888.56
2022-08-18T13:52:12.232Z,153088.41
2022-08-18T13:53:31.568Z,153049.16
2022-08-18T13:54:35.458Z,153137.47
2022-08-18T13:55:37.823Z,153238.06